createdAt,value
2019-03-26T00:00:59.772Z,101414.94
2019-03-26T00:03:30.422Z,101411.89
2019-03-26T00:06:02.192Z,101414.11
2019-03-26T00:08:33.029Z,101428.56
2019-03-26T00:11:03.509Z,101428.14
2019-03-26T00:13:34.240Z,101434.31
2019-03-26T00:16:06.805Z,101429.03
2019-03-26T00:18:37.226Z,101429.94
2019-03-26T00:21:07.782Z,101433.02
2019-03-26T00:23:39.303Z,101432.16
2019-03-26T00:26:09.729Z,101445.33
2019-03-26T00:28:40.470Z,101449.70
2019-03-26T00:31:11.061Z,101450.12
2019-03-26T00:33:41.672Z,101453.62
2019-03-26T00:36:13.344Z,101452.28
2019-03-26T00:38:45.812Z,101453.59
2019-03-26T00:41:16.303Z,101458.84
2019-03-26T00:43:48.194Z,101458.84
2019-03-26T00:46:18.617Z,101456.20
2019-03-26T00:48:48.972Z,101462.33
2019-03-26T00:51:19.415Z,101467.16
2019-03-26T00:53:49.757Z,101475.94
2019-03-26T00:56:20.318Z,101475.07
2019-03-26T00:58:50.756Z,101481.20
2019-03-26T01:01:21.346Z,101475.06
2019-03-26T01:03:54.817Z,101486.46
2019-03-26T01:06:23.817Z,101487.78
2019-03-26T01:08:54.240Z,101491.74
2019-03-26T01:11:24.555Z,101489.53
2019-03-26T01:13:54.908Z,101498.73
2019-03-26T01:16:25.307Z,101508.37
2019-03-26T01:18:55.863Z,101512.78
2019-03-26T01:21:26.363Z,101511.02
2019-03-26T01:23:56.861Z,101503.12
2019-03-26T01:26:27.533Z,101508.80
2019-03-26T01:28:58.964Z,101510.12
2019-03-26T01:31:29.336Z,101510.11
2019-03-26T01:33:59.842Z,101508.80
2019-03-26T01:36:31.385Z,101516.27
2019-03-26T01:39:01.735Z,101503.95
2019-03-26T01:41:34.036Z,101500.47
2019-03-26T01:44:04.621Z,101507.03
2019-03-26T01:46:35.145Z,101507.03
2019-03-26T01:49:05.741Z,101504.84
2019-03-26T01:51:36.106Z,101515.80
2019-03-26T01:54:09.821Z,101505.72
2019-03-26T01:56:40.517Z,101498.27
2019-03-26T01:59:11.061Z,101510.56
2019-03-26T02:01:41.767Z,101503.97
2019-03-26T02:04:12.203Z,101511.01
2019-03-26T02:06:42.801Z,101514.95
2019-03-26T02:09:14.444Z,101503.98
2019-03-26T02:11:47.034Z,101511.92
2019-03-26T02:14:17.473Z,101505.77
2019-03-26T02:16:48.113Z,101505.77
2019-03-26T02:19:18.703Z,101506.23
2019-03-26T02:21:49.062Z,101507.97
2019-03-26T02:24:19.637Z,101516.30
2019-03-26T02:26:50.194Z,101504.47
2019-03-26T02:29:21.089Z,101516.76
2019-03-26T02:31:51.524Z,101503.58
2019-03-26T02:34:22.977Z,101508.84
2019-03-26T02:36:53.362Z,101507.53
2019-03-26T02:39:24.572Z,101504.91
2019-03-26T02:41:54.881Z,101513.23
2019-03-26T02:44:25.612Z,101517.16
2019-03-26T02:46:56.014Z,101518.50
2019-03-26T02:49:26.724Z,101505.35
2019-03-26T02:51:57.375Z,101510.16
2019-03-26T02:54:27.793Z,101509.30
2019-03-26T02:56:58.190Z,101500.09
2019-03-26T02:59:28.557Z,101504.04
2019-03-26T03:01:59.138Z,101502.70
2019-03-26T03:04:29.916Z,101500.05
2019-03-26T03:07:00.830Z,101504.45
2019-03-26T03:09:31.320Z,101500.47
2019-03-26T03:12:01.779Z,101505.75
2019-03-26T03:14:32.330Z,101489.95
2019-03-26T03:17:02.814Z,101487.32
2019-03-26T03:19:33.302Z,101481.16
2019-03-26T03:22:03.683Z,101477.20
2019-03-26T03:24:34.176Z,101483.37
2019-03-26T03:27:04.699Z,101486.84
2019-03-26T03:29:35.972Z,101480.26
2019-03-26T03:32:06.388Z,101489.91
2019-03-26T03:34:36.755Z,101500.45
2019-03-26T03:37:08.029Z,101497.36
2019-03-26T03:39:38.514Z,101496.50
2019-03-26T03:42:09.026Z,101496.50
2019-03-26T03:44:39.375Z,101495.19
2019-03-26T03:47:10.378Z,101495.22
2019-03-26T03:49:40.832Z,101491.27
2019-03-26T03:52:13.350Z,101493.03
2019-03-26T03:54:44.393Z,101503.56
2019-03-26T03:57:15.489Z,101506.64
2019-03-26T03:59:48.252Z,101491.73
2019-03-26T04:02:19.603Z,101506.62
2019-03-26T04:04:50.193Z,101504.02
2019-03-26T04:07:20.827Z,101506.63
2019-03-26T04:09:51.318Z,101515.85
2019-03-26T04:12:21.642Z,101511.04
2019-03-26T04:14:52.096Z,101515.41
2019-03-26T04:17:22.419Z,101509.70
2019-03-26T04:19:58.483Z,101508.83
2019-03-26T04:22:28.921Z,101514.97
2019-03-26T04:24:59.402Z,101512.34
2019-03-26T04:27:29.966Z,101508.39
2019-03-26T04:30:00.748Z,101509.71
2019-03-26T04:32:31.314Z,101508.36
2019-03-26T04:35:01.934Z,101503.10
2019-03-26T04:37:33.005Z,101505.29
2019-03-26T04:40:03.584Z,101502.22
2019-03-26T04:42:33.964Z,101499.58
2019-03-26T04:45:04.981Z,101500.88
2019-03-26T04:47:36.400Z,101492.52
2019-03-26T04:50:07.685Z,101504.36
2019-03-26T04:52:38.093Z,101497.33
2019-03-26T04:55:08.632Z,101500.81
2019-03-26T04:57:40.201Z,101500.36
2019-03-26T05:00:10.790Z,101488.06
2019-03-26T05:02:41.116Z,101497.70
2019-03-26T05:05:12.484Z,101481.45
2019-03-26T05:07:43.069Z,101482.31
2019-03-26T05:10:13.419Z,101479.66
2019-03-26T05:12:43.798Z,101478.33
2019-03-26T05:15:14.208Z,101480.08
2019-03-26T05:17:44.598Z,101483.12
2019-03-26T05:20:15.248Z,101482.66
2019-03-26T05:22:46.045Z,101486.58
2019-03-26T05:25:16.668Z,101495.80
2019-03-26T05:27:47.194Z,101491.81
2019-03-26T05:30:17.951Z,101496.64
2019-03-26T05:32:48.367Z,101484.73
2019-03-26T05:35:18.866Z,101484.73
2019-03-26T05:37:50.293Z,101471.93
2019-03-26T05:40:20.709Z,101472.34
2019-03-26T05:42:51.177Z,101474.91
2019-03-26T05:45:21.808Z,101458.20
2019-03-26T05:47:52.288Z,101474.00
2019-03-26T05:50:22.814Z,101469.12
2019-03-26T05:52:53.361Z,101470.86
2019-03-26T05:55:25.177Z,101470.81
2019-03-26T05:57:55.929Z,101471.14
2019-03-26T06:00:26.525Z,101460.97
2019-03-26T06:02:58.036Z,101463.20
2019-03-26T06:05:28.393Z,101461.89
2019-03-26T06:07:59.064Z,101464.17
2019-03-26T06:10:29.509Z,101459.77
2019-03-26T06:13:00.178Z,101460.17
2019-03-26T06:15:31.715Z,101465.80
2019-03-26T06:18:02.107Z,101465.40
2019-03-26T06:20:32.641Z,101461.84
2019-03-26T06:23:03.440Z,101457.88
2019-03-26T06:25:33.802Z,101454.27
2019-03-26T06:28:04.426Z,101448.95
2019-03-26T06:30:36.684Z,101445.39
2019-03-26T06:33:07.141Z,101411.47
2019-03-26T06:35:37.564Z,101454.06
2019-03-26T06:38:08.988Z,101448.38
2019-03-26T06:40:39.456Z,101432.53
2019-03-26T06:43:10.049Z,101426.78
2019-03-26T06:45:40.533Z,101423.61
2019-03-26T06:48:11.143Z,101419.06
2019-03-26T06:50:41.637Z,101432.60
2019-03-26T06:53:12.026Z,101427.12
2019-03-26T06:55:42.810Z,101433.72
2019-03-26T06:58:13.328Z,101436.78
2019-03-26T07:00:44.012Z,101430.23
2019-03-26T07:03:14.562Z,101422.64
2019-03-26T07:05:45.040Z,101420.71
2019-03-26T07:08:15.867Z,101420.16
2019-03-26T07:10:46.497Z,101411.98
2019-03-26T07:13:17.281Z,101411.57
2019-03-26T07:15:47.909Z,101409.22
2019-03-26T07:18:18.345Z,101408.86
2019-03-26T07:20:48.845Z,101406.46
2019-03-26T07:23:19.503Z,101412.03
2019-03-26T07:25:50.659Z,101409.57
2019-03-26T07:28:20.989Z,101401.75
2019-03-26T07:30:51.425Z,101411.95
2019-03-26T07:33:21.900Z,101409.57
2019-03-26T07:35:52.869Z,101399.34
2019-03-26T07:38:24.317Z,101401.18
2019-03-26T07:40:55.732Z,101401.95
2019-03-26T07:43:26.137Z,101392.08
2019-03-26T07:45:56.558Z,101384.77
2019-03-26T07:48:26.971Z,101382.05
2019-03-26T07:50:57.507Z,101378.63
2019-03-26T07:53:28.324Z,101369.80
2019-03-26T07:55:58.837Z,101370.08
2019-03-26T07:58:29.562Z,101360.08
2019-03-26T08:01:00.155Z,101355.59
2019-03-26T08:03:30.605Z,101354.02
2019-03-26T08:06:01.597Z,101353.67
2019-03-26T08:08:32.517Z,101335.48
2019-03-26T08:11:03.102Z,101339.14
2019-03-26T08:13:33.790Z,101346.06
2019-03-26T08:16:04.475Z,101306.66
2019-03-26T08:18:35.349Z,101338.96
2019-03-26T08:21:05.942Z,101341.27
2019-03-26T08:23:38.432Z,101347.44
2019-03-26T08:26:10.085Z,101349.45
2019-03-26T08:28:41.112Z,101360.69
2019-03-26T08:31:14.227Z,101351.30
2019-03-26T08:33:45.244Z,101363.08
2019-03-26T08:36:15.865Z,101360.70
2019-03-26T08:38:46.716Z,101360.63
2019-03-26T08:41:17.305Z,101353.81
2019-03-26T08:43:47.881Z,101354.38
2019-03-26T08:46:18.698Z,101353.39
2019-03-26T08:48:50.101Z,101354.27
2019-03-26T08:51:20.999Z,101343.66
2019-03-26T08:53:51.569Z,101348.98
2019-03-26T08:56:22.418Z,101356.92
2019-03-26T08:58:55.997Z,101365.94
2019-03-26T09:01:26.427Z,101357.16
2019-03-26T09:03:57.087Z,101363.89
2019-03-26T09:06:27.568Z,101370.54
2019-03-26T09:08:58.373Z,101372.78
2019-03-26T09:11:29.071Z,101363.22
2019-03-26T09:13:59.532Z,101385.02
2019-03-26T09:16:30.029Z,101375.53
2019-03-26T09:19:00.668Z,101384.77
2019-03-26T09:21:32.783Z,101392.38
2019-03-26T09:24:03.584Z,101407.88
2019-03-26T09:26:34.416Z,101413.56
2019-03-26T09:29:04.821Z,101428.03
2019-03-26T09:31:38.531Z,101432.39
2019-03-26T09:34:10.064Z,101439.29
2019-03-26T09:36:40.904Z,101428.88
2019-03-26T09:39:11.430Z,101427.75
2019-03-26T09:41:41.959Z,101425.61
2019-03-26T09:44:12.364Z,101422.86
2019-03-26T09:46:43.670Z,101404.61
2019-03-26T09:49:14.522Z,101411.00
2019-03-26T09:51:45.244Z,101411.83
2019-03-26T09:54:15.836Z,101400.19
2019-03-26T09:56:46.702Z,101407.13
2019-03-26T09:59:17.112Z,101393.37
2019-03-26T10:01:49.985Z,101408.75
2019-03-26T10:04:20.428Z,101385.51
2019-03-26T10:06:51.248Z,101395.11
2019-03-26T10:09:21.594Z,101387.29
2019-03-26T10:11:52.301Z,101391.41
2019-03-26T10:14:22.884Z,101389.86
2019-03-26T10:16:53.624Z,101363.42
2019-03-26T10:19:24.454Z,101381.77
2019-03-26T10:21:54.993Z,101375.70
2019-03-26T10:24:26.113Z,101381.41
2019-03-26T10:26:56.729Z,101381.03
2019-03-26T10:29:30.429Z,101376.81
2019-03-26T10:31:59.630Z,101370.53
2019-03-26T10:34:30.033Z,101386.49
2019-03-26T10:37:00.861Z,101394.45
2019-03-26T10:39:32.360Z,101386.24
2019-03-26T10:42:02.694Z,101376.97
2019-03-26T10:44:33.188Z,101377.41
2019-03-26T10:47:03.654Z,101365.17
2019-03-26T10:49:34.439Z,101367.50
2019-03-26T10:52:05.071Z,101356.84
2019-03-26T10:54:35.684Z,101356.33
2019-03-26T10:57:06.633Z,101355.30
2019-03-26T10:59:37.500Z,101351.08
2019-03-26T11:02:08.606Z,101347.33
2019-03-26T11:04:39.384Z,101342.09
2019-03-26T11:07:10.057Z,101335.70
2019-03-26T11:09:40.451Z,101350.86
2019-03-26T11:12:11.069Z,101357.03
2019-03-26T11:14:41.661Z,101346.39
2019-03-26T11:17:12.448Z,101336.53
2019-03-26T11:19:46.170Z,101332.17
2019-03-26T11:22:15.285Z,101325.56
2019-03-26T11:24:46.134Z,101325.37
2019-03-26T11:27:16.727Z,101302.14
2019-03-26T11:29:47.320Z,101304.27
2019-03-26T11:32:17.794Z,101312.92
2019-03-26T11:34:48.541Z,101315.52
2019-03-26T11:37:19.319Z,101318.52
2019-03-26T11:39:50.745Z,101317.54
2019-03-26T11:42:22.115Z,101316.21
2019-03-26T11:44:53.687Z,101326.24
2019-03-26T11:47:25.739Z,101323.09
2019-03-26T11:49:56.167Z,101311.88
2019-03-26T11:52:27.002Z,101318.26
2019-03-26T11:54:57.589Z,101311.59
2019-03-26T11:57:28.640Z,101303.72
2019-03-26T11:59:59.040Z,101278.52
2019-03-26T12:02:30.264Z,101292.59
2019-03-26T12:05:02.278Z,101306.58
2019-03-26T12:07:32.963Z,101290.61
2019-03-26T12:10:08.493Z,101298.89
2019-03-26T12:12:39.533Z,101290.77
2019-03-26T12:15:10.347Z,101282.89
2019-03-26T12:17:41.104Z,101268.29
2019-03-26T12:20:12.054Z,101275.02
2019-03-26T12:22:42.952Z,101271.75
2019-03-26T12:25:13.939Z,101273.18
2019-03-26T12:27:44.852Z,101258.08
2019-03-26T12:30:18.889Z,101274.13
2019-03-26T12:32:49.858Z,101272.56
2019-03-26T12:35:28.421Z,101277.05
2019-03-26T12:37:59.716Z,101283.52
2019-03-26T12:40:30.962Z,101272.98
2019-03-26T12:43:01.728Z,101263.66
2019-03-26T12:45:32.326Z,101277.62
2019-03-26T12:48:02.994Z,101269.84
2019-03-26T12:50:33.821Z,101277.53
2019-03-26T12:53:04.688Z,101290.33
2019-03-26T12:55:35.891Z,101289.56
2019-03-26T12:58:07.261Z,101284.14
2019-03-26T13:00:37.643Z,101274.70
2019-03-26T13:03:08.321Z,101279.23
2019-03-26T13:05:38.771Z,101273.91
2019-03-26T13:08:09.711Z,101280.84
2019-03-26T13:10:52.792Z,101266.56
2019-03-26T13:13:12.899Z,101268.65
2019-03-26T13:15:43.376Z,101268.13
2019-03-26T13:18:13.951Z,101256.44
2019-03-26T13:20:44.467Z,101272.13
2019-03-26T13:23:15.236Z,101263.81
2019-03-26T13:25:45.796Z,101277.31
2019-03-26T13:28:16.529Z,101263.52
2019-03-26T13:30:47.055Z,101257.75
2019-03-26T13:33:17.787Z,101264.75
2019-03-26T13:35:49.644Z,101266.52
2019-03-26T13:38:20.415Z,101263.24
2019-03-26T13:40:52.537Z,101248.88
2019-03-26T13:43:23.906Z,101269.36
2019-03-26T13:45:54.674Z,101268.90
2019-03-26T13:48:27.534Z,101272.13
2019-03-26T13:50:58.283Z,101268.89
2019-03-26T13:53:29.308Z,101271.13
2019-03-26T13:56:00.117Z,101264.42
2019-03-26T13:58:31.075Z,101269.16
2019-03-26T14:01:02.639Z,101269.16
2019-03-26T14:03:33.997Z,101271.61
2019-03-26T14:06:04.745Z,101273.28
2019-03-26T14:08:36.262Z,101266.03
2019-03-26T14:11:08.946Z,101273.30
2019-03-26T14:13:39.703Z,101271.89
2019-03-26T14:16:11.692Z,101274.43
2019-03-26T14:18:42.193Z,101274.08
2019-03-26T14:21:12.876Z,101268.95
2019-03-26T14:23:43.367Z,101264.09
2019-03-26T14:26:15.785Z,101265.48
2019-03-26T14:28:46.383Z,101276.27
2019-03-26T14:31:17.017Z,101291.54
2019-03-26T14:33:47.450Z,101287.00
2019-03-26T14:36:18.632Z,101292.65
2019-03-26T14:38:51.890Z,101291.60
2019-03-26T14:41:23.727Z,101292.31
2019-03-26T14:43:56.819Z,101305.58
2019-03-26T14:46:27.485Z,101301.25
2019-03-26T14:48:58.042Z,101298.69
2019-03-26T14:51:28.660Z,101297.83
2019-03-26T14:53:59.337Z,101290.28
2019-03-26T14:56:29.673Z,101297.64
2019-03-26T14:59:00.718Z,101292.73
2019-03-26T15:01:31.379Z,101285.44
2019-03-26T15:04:03.629Z,101293.16
2019-03-26T15:06:34.800Z,101299.16
2019-03-26T15:09:07.531Z,101312.39
2019-03-26T15:11:41.160Z,101303.09
2019-03-26T15:14:12.833Z,101306.16
2019-03-26T15:16:43.975Z,101317.85
2019-03-26T15:19:16.392Z,101319.25
2019-03-26T15:21:46.962Z,101319.88
2019-03-26T15:24:18.405Z,101317.75
2019-03-26T15:26:49.108Z,101302.14
2019-03-26T15:29:21.012Z,101322.39
2019-03-26T15:31:51.683Z,101326.19
2019-03-26T15:34:35.402Z,101320.11
2019-03-26T15:36:54.426Z,101325.46
2019-03-26T15:39:25.022Z,101320.48
2019-03-26T15:41:56.468Z,101321.72
2019-03-26T15:44:27.443Z,101319.29
2019-03-26T15:46:58.964Z,101333.16
2019-03-26T15:49:30.146Z,101339.16
2019-03-26T15:52:01.067Z,101339.41
2019-03-26T15:54:31.987Z,101342.83
2019-03-26T15:57:02.516Z,101342.95
2019-03-26T15:59:34.140Z,101339.95
2019-03-26T16:02:04.909Z,101342.59
2019-03-26T16:04:35.633Z,101348.23
2019-03-26T16:07:07.702Z,101356.14
2019-03-26T16:09:38.160Z,101366.70
2019-03-26T16:12:09.009Z,101365.14
2019-03-26T16:14:39.742Z,101384.73
2019-03-26T16:17:10.321Z,101372.50
2019-03-26T16:19:41.119Z,101370.38
2019-03-26T16:22:11.701Z,101380.69
2019-03-26T16:24:42.120Z,101380.32
2019-03-26T16:27:12.587Z,101381.31
2019-03-26T16:29:43.526Z,101379.64
2019-03-26T16:32:13.940Z,101387.14
2019-03-26T16:34:45.502Z,101388.07
2019-03-26T16:37:15.875Z,101400.48
2019-03-26T16:39:46.268Z,101389.00
2019-03-26T16:42:17.779Z,101395.23
2019-03-26T16:44:48.589Z,101407.77
2019-03-26T16:47:19.445Z,101400.69
2019-03-26T16:49:50.449Z,101404.73
2019-03-26T16:52:20.937Z,101410.05
2019-03-26T16:54:51.493Z,101414.08
2019-03-26T16:57:22.852Z,101435.76
2019-03-26T16:59:54.031Z,101430.50
2019-03-26T17:02:24.715Z,101432.88
2019-03-26T17:04:55.653Z,101429.00
2019-03-26T17:07:26.091Z,101436.97
2019-03-26T17:09:58.193Z,101435.42
2019-03-26T17:12:28.800Z,101439.41
2019-03-26T17:14:59.532Z,101446.55
2019-03-26T17:17:30.400Z,101437.37
2019-03-26T17:20:01.343Z,101443.89
2019-03-26T17:22:32.219Z,101442.16
2019-03-26T17:25:03.098Z,101439.27
2019-03-26T17:27:33.616Z,101445.81
2019-03-26T17:30:05.322Z,101448.34
2019-03-26T17:32:37.597Z,101444.36
2019-03-26T17:35:09.050Z,101456.30
2019-03-26T17:37:40.074Z,101461.63
2019-03-26T17:40:10.681Z,101466.94
2019-03-26T17:42:42.185Z,101468.83
2019-03-26T17:45:12.761Z,101482.92
2019-03-26T17:47:43.711Z,101488.66
2019-03-26T17:50:14.216Z,101489.42
2019-03-26T17:52:44.712Z,101492.10
2019-03-26T17:55:15.294Z,101501.52
2019-03-26T17:57:45.653Z,101496.77
2019-03-26T18:00:19.432Z,101492.58
2019-03-26T18:02:49.791Z,101502.25
2019-03-26T18:05:26.097Z,101502.00
2019-03-26T18:07:56.950Z,101503.25
2019-03-26T18:10:28.724Z,101508.66
2019-03-26T18:13:00.133Z,101508.36
2019-03-26T18:15:30.545Z,101516.27
2019-03-26T18:18:00.871Z,101517.77
2019-03-26T18:20:32.720Z,101524.78
2019-03-26T18:23:03.692Z,101528.25
2019-03-26T18:25:34.358Z,101534.89
2019-03-26T18:28:04.895Z,101538.05
2019-03-26T18:30:35.846Z,101540.67
2019-03-26T18:33:07.061Z,101548.56
2019-03-26T18:35:39.921Z,101566.27
2019-03-26T18:38:10.636Z,101565.22
2019-03-26T18:40:42.210Z,101570.17
2019-03-26T18:43:15.400Z,101579.03
2019-03-26T18:45:46.141Z,101585.24
2019-03-26T18:48:16.671Z,101588.91
2019-03-26T18:50:47.473Z,101608.78
2019-03-26T18:53:18.043Z,101609.52
2019-03-26T18:55:48.553Z,101625.15
2019-03-26T18:58:19.162Z,101624.83
2019-03-26T19:00:50.334Z,101634.69
2019-03-26T19:03:23.914Z,101643.94
2019-03-26T19:05:54.634Z,101647.13
2019-03-26T19:08:25.045Z,101653.36
2019-03-26T19:10:55.633Z,101659.20
2019-03-26T19:13:26.331Z,101662.78
2019-03-26T19:15:56.923Z,101671.58
2019-03-26T19:18:27.555Z,101675.19
2019-03-26T19:21:02.290Z,101670.47
2019-03-26T19:23:30.457Z,101674.47
2019-03-26T19:26:01.194Z,101686.44
2019-03-26T19:28:31.849Z,101682.55
2019-03-26T19:31:03.333Z,101685.20
2019-03-26T19:33:33.789Z,101693.59
2019-03-26T19:36:04.512Z,101700.72
2019-03-26T19:38:34.897Z,101698.09
2019-03-26T19:41:05.930Z,101707.35
2019-03-26T19:43:36.542Z,101710.80
2019-03-26T19:46:06.987Z,101716.09
2019-03-26T19:48:37.669Z,101716.09
2019-03-26T19:51:08.583Z,101717.41
2019-03-26T19:53:38.950Z,101717.42
2019-03-26T19:56:10.745Z,101718.28
2019-03-26T19:58:41.285Z,101723.55
2019-03-26T20:01:12.764Z,101727.48
2019-03-26T20:03:44.199Z,101730.19
2019-03-26T20:06:14.599Z,101732.83
2019-03-26T20:08:45.377Z,101735.95
2019-03-26T20:11:15.887Z,101737.72
2019-03-26T20:13:47.593Z,101746.06
2019-03-26T20:16:19.582Z,101751.83
2019-03-26T20:18:50.575Z,101765.58
2019-03-26T20:21:21.276Z,101761.61
2019-03-26T20:23:51.837Z,101776.63
2019-03-26T20:26:22.219Z,101773.58
2019-03-26T20:28:54.205Z,101781.57
2019-03-26T20:31:24.913Z,101782.96
2019-03-26T20:33:55.724Z,101786.11
2019-03-26T20:36:27.189Z,101787.48
2019-03-26T20:38:57.758Z,101800.30
2019-03-26T20:41:31.078Z,101804.62
2019-03-26T20:44:01.693Z,101803.31
2019-03-26T20:46:32.295Z,101807.78
2019-03-26T20:49:02.735Z,101800.34
2019-03-26T20:51:34.502Z,101806.97
2019-03-26T20:54:05.338Z,101811.84
2019-03-26T20:56:36.132Z,101808.34
2019-03-26T20:59:06.655Z,101818.09
2019-03-26T21:01:37.882Z,101819.03
2019-03-26T21:04:08.356Z,101819.95
2019-03-26T21:06:42.399Z,101829.23
2019-03-26T21:09:14.145Z,101828.82
2019-03-26T21:11:44.777Z,101826.70
2019-03-26T21:14:15.909Z,101843.05
2019-03-26T21:16:46.794Z,101840.44
2019-03-26T21:19:18.576Z,101840.48
2019-03-26T21:21:49.183Z,101836.53
2019-03-26T21:24:19.776Z,101839.64
2019-03-26T21:26:50.309Z,101846.72
2019-03-26T21:29:21.475Z,101856.89
2019-03-26T21:31:51.951Z,101861.31
2019-03-26T21:34:30.300Z,101863.52
2019-03-26T21:36:57.581Z,101863.52
2019-03-26T21:39:28.444Z,101867.52
2019-03-26T21:41:59.306Z,101862.72
2019-03-26T21:44:31.000Z,101863.62
2019-03-26T21:47:02.106Z,101862.75
2019-03-26T21:49:33.320Z,101868.45
2019-03-26T21:52:04.117Z,101866.27
2019-03-26T21:54:35.725Z,101865.39
2019-03-26T21:57:06.124Z,101863.66
2019-03-26T21:59:36.505Z,101873.33
2019-03-26T22:02:07.112Z,101877.72
2019-03-26T22:04:38.227Z,101877.28
2019-03-26T22:07:08.757Z,101879.48
2019-03-26T22:09:39.133Z,101874.61
2019-03-26T22:12:09.634Z,101876.81
2019-03-26T22:14:40.519Z,101873.72
2019-03-26T22:17:11.261Z,101882.94
2019-03-26T22:19:42.025Z,101884.69
2019-03-26T22:22:12.773Z,101892.55
2019-03-26T22:24:43.555Z,101896.91
2019-03-26T22:27:14.076Z,101903.91
2019-03-26T22:29:45.152Z,101908.69
2019-03-26T22:32:16.786Z,101911.70
2019-03-26T22:34:47.367Z,101912.96
2019-03-26T22:37:17.861Z,101911.59
2019-03-26T22:39:48.361Z,101913.33
2019-03-26T22:42:18.827Z,101918.50
2019-03-26T22:44:51.735Z,101922.38
2019-03-26T22:47:22.423Z,101923.14
2019-03-26T22:49:53.037Z,101934.09
2019-03-26T22:52:23.528Z,101933.21
2019-03-26T22:54:54.487Z,101936.70
2019-03-26T22:57:25.035Z,101941.36
2019-03-26T22:59:55.426Z,101940.38
2019-03-26T23:02:25.745Z,101944.66
2019-03-26T23:04:56.214Z,101946.77
2019-03-26T23:07:26.665Z,101955.48
2019-03-26T23:09:57.464Z,101950.67
2019-03-26T23:12:28.017Z,101956.84
2019-03-26T23:14:58.731Z,101960.39
2019-03-26T23:17:29.084Z,101968.76
2019-03-26T23:19:59.756Z,101963.00
2019-03-26T23:22:31.600Z,101968.60
2019-03-26T23:25:02.037Z,101967.16
2019-03-26T23:27:32.780Z,101967.55
2019-03-26T23:30:05.263Z,101964.42
2019-03-26T23:32:35.717Z,101965.66
2019-03-26T23:35:06.376Z,101966.45
2019-03-26T23:37:36.930Z,101961.03
2019-03-26T23:40:07.664Z,101961.86
2019-03-26T23:42:38.118Z,101967.88
2019-03-26T23:45:08.856Z,101968.80
2019-03-26T23:47:39.436Z,101965.19
2019-03-26T23:50:10.049Z,101971.73
2019-03-26T23:52:41.091Z,101975.13
2019-03-26T23:55:11.763Z,101970.27
2019-03-26T23:57:43.913Z,101977.61
